Time,TemperatureF,DewpointF,PressureIn,WindDirection,WindDirectionDegrees,WindSpeedMPH,WindSpeedGustMPH,Humidity,HourlyPrecipIn,Conditions,Clouds,dailyrainin,SoftwareType,DateUTC
2013-01-02 00:04:00,32.0,29.5,30.19,West,268,1.0,1.0,90,0.00,,,0.00,meteohub,2013-01-02 08:04:00,
2013-01-02 00:09:00,32.2,29.8,30.19,ENE,66,2.0,3.0,91,0.00,,,0.00,meteohub,2013-01-02 08:09:00,
2013-01-02 00:14:00,32.4,29.8,30.19,WSW,257,2.0,3.0,90,0.00,,,0.00,meteohub,2013-01-02 08:14:00,
2013-01-02 00:19:00,32.4,29.8,30.19,SW,230,1.0,3.0,90,0.00,,,0.00,meteohub,2013-01-02 08:19:00,
2013-01-02 00:24:00,32.2,29.7,30.19,SW,232,1.0,3.0,90,0.00,,,0.00,meteohub,2013-01-02 08:24:00,
2013-01-02 00:29:00,32.2,29.3,30.19,WSW,247,1.0,3.0,89,0.00,,,0.00,meteohub,2013-01-02 08:29:00,
2013-01-02 00:34:00,32.2,29.7,30.19,NNE,12,0.0,2.0,90,0.00,,,0.00,meteohub,2013-01-02 08:34:00,
2013-01-02 00:39:00,32.2,29.7,30.19,NW,326,0.0,2.0,90,0.00,,,0.00,meteohub,2013-01-02 08:39:00,
2013-01-02 00:44:00,32.2,29.7,30.19,NW,326,1.0,2.0,90,0.00,,,0.00,meteohub,2013-01-02 08:44:00,
2013-01-02 00:49:00,32.0,29.1,30.19,NW,326,0.0,2.0,89,0.00,,,0.00,meteohub,2013-01-02 08:49:00,
2013-01-02 00:54:00,31.6,29.1,30.19,WSW,253,1.0,1.0,90,0.00,,,0.00,meteohub,2013-01-02 08:54:00,
2013-01-02 00:59:00,31.3,28.8,30.19,WSW,253,1.0,1.0,90,0.00,,,0.00,meteohub,2013-01-02 08:59:00,
2013-01-02 01:04:00,30.9,28.4,30.19,NE,46,1.0,1.0,90,0.00,,,0.00,meteohub,2013-01-02 09:04:00,
2013-01-02 01:09:00,31.1,28.8,30.19,ENE,63,0.0,2.0,91,0.00,,,0.00,meteohub,2013-01-02 09:09:00,
2013-01-02 01:14:00,31.1,28.6,30.19,South,178,1.0,2.0,90,0.00,,,0.00,meteohub,2013-01-02 09:14:00,
2013-01-02 01:19:00,30.9,28.6,30.19,East,99,1.0,2.0,91,0.00,,,0.00,meteohub,2013-01-02 09:19:00,
2013-01-02 01:24:00,31.3,28.9,30.19,ENE,77,1.0,2.0,91,0.00,,,0.00,meteohub,2013-01-02 09:24:00,
2013-01-02 01:30:00,31.5,29.1,30.19,ESE,109,1.0,3.0,91,0.00,,,0.00,meteohub,2013-01-02 09:30:00,
2013-01-02 01:35:00,31.3,28.8,30.19,WSW,249,0.0,3.0,90,0.00,,,0.00,meteohub,2013-01-02 09:35:00,
2013-01-02 01:40:00,30.9,28.4,30.19,WSW,250,0.0,2.0,90,0.00,,,0.00,meteohub,2013-01-02 09:40:00,
2013-01-02 01:45:00,30.7,28.2,30.19,West,279,2.0,2.0,90,0.00,,,0.00,meteohub,2013-01-02 09:45:00,
2013-01-02 01:50:00,30.6,28.2,30.19,NW,321,1.0,3.0,91,0.00,,,0.00,meteohub,2013-01-02 09:50:00,
2013-01-02 01:55:00,30.4,28.0,30.19,ENE,58,1.0,4.0,91,0.00,,,0.00,meteohub,2013-01-02 09:55:00,
2013-01-02 02:00:00,30.4,28.0,30.19,NE,56,0.0,4.0,91,0.00,,,0.00,meteohub,2013-01-02 10:00:00,
2013-01-02 02:05:00,30.4,28.0,30.18,SW,219,1.0,2.0,91,0.00,,,0.00,meteohub,2013-01-02 10:05:00,
2013-01-02 02:10:00,30.0,27.7,30.18,West,261,1.0,2.0,91,0.00,,,0.00,meteohub,2013-01-02 10:10:00,
2013-01-02 02:15:00,29.8,27.5,30.18,SSE,148,1.0,2.0,91,0.00,,,0.00,meteohub,2013-01-02 10:15:00,
2013-01-02 02:20:00,29.8,27.9,30.18,SSE,148,0.0,1.0,92,0.00,,,0.00,meteohub,2013-01-02 10:20:00,
2013-01-02 02:25:00,29.8,27.9,30.18,SE,139,0.0,1.0,92,0.00,,,0.00,meteohub,2013-01-02 10:25:00,
2013-01-02 02:30:00,29.8,27.9,30.18,SE,138,1.0,1.0,92,0.00,,,0.00,meteohub,2013-01-02 10:30:00,
2013-01-02 02:35:00,29.8,27.9,30.18,WSW,245,1.0,1.0,92,0.00,,,0.00,meteohub,2013-01-02 10:35:00,
2013-01-02 02:40:00,29.7,27.7,30.18,SSW,202,1.0,2.0,92,0.00,,,0.00,meteohub,2013-01-02 10:40:00,
2013-01-02 02:45:00,29.5,27.5,30.18,ENE,60,3.0,3.0,92,0.00,,,0.00,meteohub,2013-01-02 10:45:00,
2013-01-02 02:50:00,29.7,27.7,30.18,SE,132,2.0,4.0,92,0.00,,,0.00,meteohub,2013-01-02 10:50:00,
2013-01-02 02:55:00,29.8,27.9,30.18,SSW,210,0.0,4.0,92,0.00,,,0.00,meteohub,2013-01-02 10:55:00,
2013-01-02 03:00:00,29.8,27.9,30.18,West,265,0.0,3.0,92,0.00,,,0.00,meteohub,2013-01-02 11:00:00,
2013-01-02 03:05:00,29.8,27.9,30.18,SE,140,0.0,3.0,92,0.00,,,0.00,meteohub,2013-01-02 11:05:00,
2013-01-02 03:10:00,29.7,27.7,30.18,SE,140,0.0,2.0,92,0.00,,,0.00,meteohub,2013-01-02 11:10:00,
2013-01-02 03:15:00,29.7,27.7,30.18,SSW,196,1.0,2.0,92,0.00,,,0.00,meteohub,2013-01-02 11:15:00,
2013-01-02 03:20:00,29.7,27.7,30.18,West,276,1.0,2.0,92,0.00,,,0.00,meteohub,2013-01-02 11:20:00,
2013-01-02 03:25:00,29.5,27.5,30.18,SSW,210,0.0,2.0,92,0.00,,,0.00,meteohub,2013-01-02 11:25:00,
2013-01-02 03:30:00,29.5,27.5,30.18,ESE,109,1.0,2.0,92,0.00,,,0.00,meteohub,2013-01-02 11:30:00,
2013-01-02 03:35:00,29.5,27.7,30.18,ESE,111,0.0,2.0,93,0.00,,,0.00,meteohub,2013-01-02 11:35:00,
2013-01-02 03:41:00,29.5,27.5,30.18,ESE,112,0.0,2.0,92,0.00,,,0.00,meteohub,2013-01-02 11:41:00,
2013-01-02 03:46:00,29.5,27.7,30.18,ESE,111,0.0,1.0,93,0.00,,,0.00,meteohub,2013-01-02 11:46:00,
2013-01-02 03:51:00,29.3,27.5,30.17,NNW,340,0.0,1.0,93,0.00,,,0.00,meteohub,2013-01-02 11:51:00,
2013-01-02 03:56:00,29.1,27.3,30.17,NNW,340,0.0,2.0,93,0.00,,,0.00,meteohub,2013-01-02 11:56:00,
2013-01-02 04:01:00,28.9,27.1,30.17,NNW,339,0.0,2.0,93,0.00,,,0.00,meteohub,2013-01-02 12:01:00,
2013-01-02 04:06:00,28.8,27.0,30.17,NNW,339,0.0,1.0,93,0.00,,,0.00,meteohub,2013-01-02 12:06:00,
2013-01-02 04:11:00,28.8,27.0,30.17,NNW,339,0.0,1.0,93,0.00,,,0.00,meteohub,2013-01-02 12:11:00,
2013-01-02 04:16:00,28.6,26.8,30.17,NNW,338,1.0,1.0,93,0.00,,,0.00,meteohub,2013-01-02 12:16:00,
2013-01-02 04:21:00,28.6,26.8,30.16,NW,323,0.0,1.0,93,0.00,,,0.00,meteohub,2013-01-02 12:21:00,
2013-01-02 04:26:00,28.6,26.8,30.16,NW,323,0.0,1.0,93,0.00,,,0.00,meteohub,2013-01-02 12:26:00,
2013-01-02 04:31:00,28.6,26.8,30.16,NW,323,0.0,1.0,93,0.00,,,0.00,meteohub,2013-01-02 12:31:00,
2013-01-02 04:36:00,28.6,26.8,30.16,NW,323,1.0,1.0,93,0.00,,,0.00,meteohub,2013-01-02 12:36:00,
2013-01-02 04:41:00,28.4,26.6,30.16,West,259,0.0,3.0,93,0.00,,,0.00,meteohub,2013-01-02 12:41:00,
2013-01-02 04:46:00,28.2,26.4,30.16,NE,36,2.0,3.0,93,0.00,,,0.00,meteohub,2013-01-02 12:46:00,
2013-01-02 04:51:00,28.4,26.6,30.17,NE,42,0.0,3.0,93,0.00,,,0.00,meteohub,2013-01-02 12:51:00,
2013-01-02 04:56:00,28.6,27.1,30.17,NE,42,1.0,3.0,94,0.00,,,0.00,meteohub,2013-01-02 12:56:00,
2013-01-02 05:01:00,28.2,26.4,30.17,South,190,0.0,2.0,93,0.00,,,0.00,meteohub,2013-01-02 13:01:00,
2013-01-02 05:06:00,28.2,26.4,30.17,SE,140,1.0,2.0,93,0.00,,,0.00,meteohub,2013-01-02 13:06:00,
2013-01-02 05:11:00,28.4,27.0,30.17,ENE,74,0.0,2.0,94,0.00,,,0.00,meteohub,2013-01-02 13:11:00,
2013-01-02 05:16:00,28.6,27.1,30.17,ENE,74,0.0,2.0,94,0.00,,,0.00,meteohub,2013-01-02 13:16:00,
2013-01-02 05:21:00,28.6,27.1,30.17,ENE,75,1.0,2.0,94,0.00,,,0.00,meteohub,2013-01-02 13:21:00,
2013-01-02 05:26:00,28.2,26.4,30.17,ENE,74,0.0,1.0,93,0.00,,,0.00,meteohub,2013-01-02 13:26:00,
2013-01-02 05:31:00,28.0,26.2,30.17,ENE,73,0.0,1.0,93,0.00,,,0.00,meteohub,2013-01-02 13:31:00,
2013-01-02 05:36:00,28.0,26.6,30.17,ENE,73,0.0,1.0,94,0.00,,,0.00,meteohub,2013-01-02 13:36:00,
2013-01-02 05:41:00,28.0,26.6,30.17,ENE,73,0.0,1.0,94,0.00,,,0.00,meteohub,2013-01-02 13:41:00,
2013-01-02 05:46:00,27.9,26.4,30.17,West,271,1.0,1.0,94,0.00,,,0.00,meteohub,2013-01-02 13:46:00,
2013-01-02 05:52:00,27.9,26.4,30.17,West,271,0.0,1.0,94,0.00,,,0.00,meteohub,2013-01-02 13:52:00,
2013-01-02 05:57:00,27.7,26.2,30.17,West,271,0.0,1.0,94,0.00,,,0.00,meteohub,2013-01-02 13:57:00,
2013-01-02 06:02:00,27.7,26.2,30.17,West,272,0.0,1.0,94,0.00,,,0.00,meteohub,2013-01-02 14:02:00,
2013-01-02 06:07:00,27.9,26.4,30.17,West,272,0.0,1.0,94,0.00,,,0.00,meteohub,2013-01-02 14:07:00,
2013-01-02 06:12:00,27.9,26.4,30.17,West,272,0.0,1.0,94,0.00,,,0.00,meteohub,2013-01-02 14:12:00,
2013-01-02 06:17:00,27.9,26.4,30.17,West,272,0.0,1.0,94,0.00,,,0.00,meteohub,2013-01-02 14:17:00,
2013-01-02 06:22:00,27.7,26.2,30.17,West,272,1.0,1.0,94,0.00,,,0.00,meteohub,2013-01-02 14:22:00,
2013-01-02 06:27:00,27.7,26.2,30.17,West,271,0.0,1.0,94,0.00,,,0.00,meteohub,2013-01-02 14:27:00,
2013-01-02 06:32:00,27.7,26.2,30.17,West,270,0.0,1.0,94,0.00,,,0.00,meteohub,2013-01-02 14:32:00,
2013-01-02 06:37:00,27.7,26.2,30.17,West,270,0.0,1.0,94,0.00,,,0.00,meteohub,2013-01-02 14:37:00,
2013-01-02 06:42:00,27.7,26.2,30.17,West,270,0.0,1.0,94,0.00,,,0.00,meteohub,2013-01-02 14:42:00,
2013-01-02 06:47:00,27.9,26.4,30.17,West,273,1.0,1.0,94,0.00,,,0.00,meteohub,2013-01-02 14:47:00,
2013-01-02 06:52:00,27.7,26.2,30.17,West,273,0.0,2.0,94,0.00,,,0.00,meteohub,2013-01-02 14:52:00,
2013-01-02 06:57:00,27.3,25.9,30.17,West,273,0.0,2.0,94,0.00,,,0.00,meteohub,2013-01-02 14:57:00,
2013-01-02 07:02:00,27.3,25.9,30.17,West,273,0.0,1.0,94,0.00,,,0.00,meteohub,2013-01-02 15:02:00,
2013-01-02 07:07:00,27.3,25.9,30.17,West,273,0.0,1.0,94,0.00,,,0.00,meteohub,2013-01-02 15:07:00,
2013-01-02 07:12:00,27.3,25.9,30.17,West,273,0.0,1.0,94,0.00,,,0.00,meteohub,2013-01-02 15:12:00,
2013-01-02 07:17:00,27.3,25.9,30.17,West,273,0.0,0.0,94,0.00,,,0.00,meteohub,2013-01-02 15:17:00,
2013-01-02 07:22:00,27.5,26.2,30.18,SSE,150,1.0,1.0,95,0.00,,,0.00,meteohub,2013-01-02 15:22:00,
2013-01-02 07:27:00,27.7,26.4,30.18,SE,132,0.0,2.0,95,0.00,,,0.00,meteohub,2013-01-02 15:27:00,
2013-01-02 07:32:00,27.5,26.1,30.18,SE,134,0.0,2.0,94,0.00,,,0.00,meteohub,2013-01-02 15:32:00,
2013-01-02 07:37:00,27.3,25.9,30.19,SE,133,0.0,2.0,94,0.00,,,0.00,meteohub,2013-01-02 15:37:00,
2013-01-02 07:42:00,27.3,25.9,30.19,SE,132,0.0,1.0,94,0.00,,,0.00,meteohub,2013-01-02 15:42:00,
2013-01-02 07:47:00,27.5,26.2,30.19,ESE,123,0.0,1.0,95,0.00,,,0.00,meteohub,2013-01-02 15:47:00,
2013-01-02 07:52:00,28.4,27.1,30.19,ESE,123,0.0,1.0,95,0.00,,,0.00,meteohub,2013-01-02 15:52:00,
2013-01-02 07:57:00,28.9,27.7,30.19,ESE,123,0.0,1.0,95,0.00,,,0.00,meteohub,2013-01-02 15:57:00,
2013-01-02 08:02:00,29.1,27.9,30.19,SE,124,0.0,1.0,95,0.00,,,0.00,meteohub,2013-01-02 16:02:00,
2013-01-02 08:07:00,29.3,27.9,30.19,ESE,123,0.0,1.0,94,0.00,,,0.00,meteohub,2013-01-02 16:07:00,
2013-01-02 08:13:00,29.8,28.4,30.19,ESE,122,0.0,0.0,94,0.00,,,0.00,meteohub,2013-01-02 16:13:00,
2013-01-02 08:18:00,30.0,28.6,30.19,ESE,123,0.0,0.0,94,0.00,,,0.00,meteohub,2013-01-02 16:18:00,
2013-01-02 08:23:00,30.2,28.4,30.19,SW,223,1.0,0.0,93,0.00,,,0.00,meteohub,2013-01-02 16:23:00,
2013-01-02 08:28:00,30.6,28.8,30.19,NW,312,0.0,2.0,93,0.00,,,0.00,meteohub,2013-01-02 16:28:00,
2013-01-02 08:33:00,31.3,29.3,30.19,NW,312,0.0,2.0,92,0.00,,,0.00,meteohub,2013-01-02 16:33:00,
2013-01-02 08:38:00,31.8,29.8,30.18,West,279,2.0,2.0,92,0.00,,,0.00,meteohub,2013-01-02 16:38:00,
2013-01-02 08:43:00,32.5,30.6,30.18,West,270,0.0,2.0,92,0.00,,,0.00,meteohub,2013-01-02 16:43:00,
2013-01-02 08:48:00,33.4,31.1,30.18,West,270,0.0,2.0,91,0.00,,,0.00,meteohub,2013-01-02 16:48:00,
2013-01-02 08:53:00,34.2,31.5,30.18,West,272,0.0,2.0,90,0.00,,,0.00,meteohub,2013-01-02 16:53:00,
2013-01-02 08:58:00,34.9,32.0,30.18,West,271,0.0,1.0,89,0.00,,,0.00,meteohub,2013-01-02 16:58:00,
2013-01-02 09:03:00,36.0,32.5,30.18,West,272,0.0,1.0,87,0.00,,,0.00,meteohub,2013-01-02 17:03:00,
2013-01-02 09:08:00,36.7,32.4,30.19,West,272,0.0,1.0,84,0.00,,,0.00,meteohub,2013-01-02 17:08:00,
2013-01-02 09:13:00,37.4,32.4,30.19,West,271,0.0,1.0,82,0.00,,,0.00,meteohub,2013-01-02 17:13:00,
2013-01-02 09:18:00,38.8,33.8,30.19,West,272,0.0,1.0,82,0.00,,,0.00,meteohub,2013-01-02 17:18:00,
2013-01-02 09:23:00,39.9,32.4,30.19,West,280,0.0,1.0,74,0.00,,,0.00,meteohub,2013-01-02 17:23:00,
2013-01-02 09:28:00,40.8,32.9,30.19,West,279,0.0,1.0,73,0.00,,,0.00,meteohub,2013-01-02 17:28:00,
2013-01-02 09:33:00,41.7,33.4,30.19,West,279,0.0,1.0,72,0.00,,,0.00,meteohub,2013-01-02 17:33:00,
2013-01-02 09:38:00,42.8,33.6,30.20,West,279,0.0,0.0,70,0.00,,,0.00,meteohub,2013-01-02 17:38:00,
2013-01-02 09:43:00,43.3,33.1,30.20,West,280,0.0,0.0,67,0.00,,,0.00,meteohub,2013-01-02 17:43:00,
2013-01-02 09:48:00,42.6,32.7,30.20,West,279,0.0,1.0,68,0.00,,,0.00,meteohub,2013-01-02 17:48:00,
2013-01-02 09:53:00,43.0,33.4,30.19,West,277,1.0,1.0,69,0.00,,,0.00,meteohub,2013-01-02 17:53:00,
2013-01-02 09:58:00,43.2,32.9,30.19,WSW,237,1.0,1.0,67,0.00,,,0.00,meteohub,2013-01-02 17:58:00,
2013-01-02 10:03:00,43.3,33.4,30.19,SW,225,0.0,2.0,68,0.00,,,0.00,meteohub,2013-01-02 18:03:00,
2013-01-02 10:08:00,44.1,33.1,30.19,SW,227,0.0,1.0,65,0.00,,,0.00,meteohub,2013-01-02 18:08:00,
2013-01-02 10:13:00,44.2,32.9,30.19,SSW,210,0.0,2.0,64,0.00,,,0.00,meteohub,2013-01-02 18:13:00,
2013-01-02 10:18:00,44.2,32.9,30.19,SW,225,2.0,3.0,64,0.00,,,0.00,meteohub,2013-01-02 18:18:00,
2013-01-02 10:23:00,44.2,32.4,30.19,West,267,1.0,3.0,63,0.00,,,0.00,meteohub,2013-01-02 18:23:00,
2013-01-02 10:28:00,44.6,33.6,30.19,SW,224,3.0,3.0,65,0.00,,,0.00,meteohub,2013-01-02 18:28:00,
2013-01-02 10:34:00,45.0,33.1,30.19,SW,226,2.0,3.0,63,0.00,,,0.00,meteohub,2013-01-02 18:34:00,
2013-01-02 10:39:00,45.3,33.4,30.20,WSW,254,1.0,3.0,63,0.00,,,0.00,meteohub,2013-01-02 18:39:00,
2013-01-02 10:44:00,45.9,33.3,30.20,SW,219,1.0,3.0,61,0.00,,,0.00,meteohub,2013-01-02 18:44:00,
2013-01-02 10:49:00,46.0,32.9,30.20,SW,225,0.0,4.0,60,0.00,,,0.00,meteohub,2013-01-02 18:49:00,
2013-01-02 10:54:00,46.6,33.4,30.19,SW,222,2.0,4.0,60,0.00,,,0.00,meteohub,2013-01-02 18:54:00,
2013-01-02 10:59:00,47.1,34.0,30.19,SSW,205,0.0,4.0,60,0.00,,,0.00,meteohub,2013-01-02 18:59:00,
2013-01-02 11:04:00,47.7,34.0,30.19,SSE,152,0.0,4.0,59,0.00,,,0.00,meteohub,2013-01-02 19:04:00,
2013-01-02 11:09:00,47.8,33.3,30.18,SSW,194,1.0,3.0,57,0.00,,,0.00,meteohub,2013-01-02 19:09:00,
2013-01-02 11:14:00,48.0,34.0,30.18,SSW,196,0.0,3.0,58,0.00,,,0.00,meteohub,2013-01-02 19:14:00,
2013-01-02 11:19:00,48.4,33.8,30.18,ENE,63,3.0,3.0,57,0.00,,,0.00,meteohub,2013-01-02 19:19:00,
2013-01-02 11:24:00,48.6,34.5,30.18,SW,214,1.0,3.0,58,0.00,,,0.00,meteohub,2013-01-02 19:24:00,
2013-01-02 11:29:00,49.1,34.2,30.18,SSE,158,2.0,3.0,56,0.00,,,0.00,meteohub,2013-01-02 19:29:00,
2013-01-02 11:34:00,49.3,34.2,30.18,SSE,161,2.0,4.0,56,0.00,,,0.00,meteohub,2013-01-02 19:34:00,
2013-01-02 11:39:00,49.6,34.2,30.17,SW,223,2.0,4.0,55,0.00,,,0.00,meteohub,2013-01-02 19:39:00,
2013-01-02 11:44:00,50.2,34.2,30.17,SSE,161,0.0,3.0,54,0.00,,,0.00,meteohub,2013-01-02 19:44:00,
2013-01-02 11:49:00,49.8,33.4,30.17,East,87,2.0,4.0,53,0.00,,,0.00,meteohub,2013-01-02 19:49:00,
2013-01-02 11:54:00,50.4,34.3,30.16,SE,134,1.0,4.0,54,0.00,,,0.00,meteohub,2013-01-02 19:54:00,
2013-01-02 11:59:00,51.1,34.5,30.16,SSW,200,2.0,4.0,53,0.00,,,0.00,meteohub,2013-01-02 19:59:00,
2013-01-02 12:04:00,51.3,34.7,30.16,SSW,209,1.0,4.0,53,0.00,,,0.00,meteohub,2013-01-02 20:04:00,
2013-01-02 12:09:00,51.3,34.7,30.15,SSW,198,1.0,4.0,53,0.00,,,0.00,meteohub,2013-01-02 20:09:00,
2013-01-02 12:14:00,51.4,34.9,30.15,NW,322,1.0,4.0,53,0.00,,,0.00,meteohub,2013-01-02 20:14:00,
2013-01-02 12:19:00,51.8,35.2,30.15,South,187,2.0,4.0,53,0.00,,,0.00,meteohub,2013-01-02 20:19:00,
2013-01-02 12:24:00,52.2,35.1,30.15,SE,144,2.0,4.0,52,0.00,,,0.00,meteohub,2013-01-02 20:24:00,
2013-01-02 12:29:00,52.5,36.0,30.15,SSW,205,1.0,5.0,53,0.00,,,0.00,meteohub,2013-01-02 20:29:00,
2013-01-02 12:34:00,52.9,35.2,30.13,SSW,213,2.0,5.0,51,0.00,,,0.00,meteohub,2013-01-02 20:34:00,
2013-01-02 12:39:00,53.2,35.6,30.13,SSW,193,1.0,4.0,51,0.00,,,0.00,meteohub,2013-01-02 20:39:00,
2013-01-02 12:44:00,53.6,35.4,30.13,South,176,3.0,4.0,50,0.00,,,0.00,meteohub,2013-01-02 20:44:00,
2013-01-02 12:49:00,53.6,35.4,30.13,WSW,237,4.0,5.0,50,0.00,,,0.00,meteohub,2013-01-02 20:49:00,
2013-01-02 12:54:00,53.4,35.8,30.13,West,267,1.0,5.0,51,0.00,,,0.00,meteohub,2013-01-02 20:54:00,
2013-01-02 13:00:00,53.6,36.3,30.13,WSW,242,2.0,5.0,52,0.00,,,0.00,meteohub,2013-01-02 21:00:00,
2013-01-02 13:05:00,54.1,36.3,30.12,SSW,198,4.0,5.0,51,0.00,,,0.00,meteohub,2013-01-02 21:05:00,
2013-01-02 13:10:00,54.1,36.0,30.12,West,262,1.0,5.0,50,0.00,,,0.00,meteohub,2013-01-02 21:10:00,
2013-01-02 13:15:00,54.1,36.3,30.12,SSW,198,2.0,5.0,51,0.00,,,0.00,meteohub,2013-01-02 21:15:00,
2013-01-02 13:20:00,54.1,36.9,30.12,SW,222,2.0,7.0,52,0.00,,,0.00,meteohub,2013-01-02 21:20:00,
2013-01-02 13:25:00,54.3,37.6,30.12,SSE,168,1.0,7.0,53,0.00,,,0.00,meteohub,2013-01-02 21:25:00,
2013-01-02 13:30:00,54.5,36.7,30.12,SW,215,4.0,6.0,51,0.00,,,0.00,meteohub,2013-01-02 21:30:00,
2013-01-02 13:35:00,54.1,36.9,30.12,SSE,165,2.0,6.0,52,0.00,,,0.00,meteohub,2013-01-02 21:35:00,
2013-01-02 13:40:00,54.7,37.4,30.12,SSE,155,2.0,6.0,52,0.00,,,0.00,meteohub,2013-01-02 21:40:00,
2013-01-02 13:45:00,55.0,36.7,30.12,ESE,121,1.0,4.0,50,0.00,,,0.00,meteohub,2013-01-02 21:45:00,
2013-01-02 13:50:00,55.2,36.9,30.11,SSW,194,3.0,4.0,50,0.00,,,0.00,meteohub,2013-01-02 21:50:00,
2013-01-02 13:55:00,55.6,37.2,30.11,SSW,199,1.0,4.0,50,0.00,,,0.00,meteohub,2013-01-02 21:55:00,
2013-01-02 14:00:00,55.4,37.0,30.11,SW,229,1.0,5.0,50,0.00,,,0.00,meteohub,2013-01-02 22:00:00,
2013-01-02 14:05:00,55.8,37.9,30.11,SW,229,1.0,5.0,51,0.00,,,0.00,meteohub,2013-01-02 22:05:00,
2013-01-02 14:10:00,56.5,38.1,30.11,SW,219,1.0,3.0,50,0.00,,,0.00,meteohub,2013-01-02 22:10:00,
2013-01-02 14:15:00,56.8,37.4,30.11,SW,225,2.0,4.0,48,0.00,,,0.00,meteohub,2013-01-02 22:15:00,
2013-01-02 14:20:00,56.7,37.8,30.10,WSW,256,2.0,4.0,49,0.00,,,0.00,meteohub,2013-01-02 22:20:00,
2013-01-02 14:25:00,56.7,37.8,30.10,SW,214,1.0,5.0,49,0.00,,,0.00,meteohub,2013-01-02 22:25:00,
2013-01-02 14:30:00,57.4,37.9,30.10,SSW,192,2.0,7.0,48,0.00,,,0.00,meteohub,2013-01-02 22:30:00,
2013-01-02 14:35:00,57.6,37.4,30.10,SSE,161,1.0,7.0,47,0.00,,,0.00,meteohub,2013-01-02 22:35:00,
2013-01-02 14:40:00,57.6,36.3,30.10,SE,144,1.0,3.0,45,0.00,,,0.00,meteohub,2013-01-02 22:40:00,
2013-01-02 14:45:00,57.7,37.0,30.10,SW,214,1.0,4.0,46,0.00,,,0.00,meteohub,2013-01-02 22:45:00,
2013-01-02 14:50:00,57.7,37.0,30.09,SE,130,4.0,5.0,46,0.00,,,0.00,meteohub,2013-01-02 22:50:00,
2013-01-02 14:55:00,57.7,37.6,30.09,SE,127,2.0,6.0,47,0.00,,,0.00,meteohub,2013-01-02 22:55:00,
2013-01-02 15:00:00,57.4,36.7,30.09,ESE,119,4.0,10.0,46,0.00,,,0.00,meteohub,2013-01-02 23:00:00,
2013-01-02 15:05:00,56.8,37.4,30.09,ESE,111,9.0,10.0,48,0.00,,,0.00,meteohub,2013-01-02 23:05:00,
2013-01-02 15:10:00,56.7,37.2,30.09,SE,134,4.0,11.0,48,0.00,,,0.00,meteohub,2013-01-02 23:10:00,
2013-01-02 15:15:00,56.5,37.0,30.09,East,89,5.0,11.0,48,0.00,,,0.00,meteohub,2013-01-02 23:15:00,
2013-01-02 15:21:00,56.3,36.9,30.10,SSE,159,6.0,11.0,48,0.00,,,0.00,meteohub,2013-01-02 23:21:00,
2013-01-02 15:26:00,56.1,37.2,30.10,SE,125,4.0,10.0,49,0.00,,,0.00,meteohub,2013-01-02 23:26:00,
2013-01-02 15:31:00,56.1,37.2,30.10,SE,139,3.0,11.0,49,0.00,,,0.00,meteohub,2013-01-02 23:31:00,
2013-01-02 15:36:00,56.1,37.2,30.10,ESE,109,2.0,11.0,49,0.00,,,0.00,meteohub,2013-01-02 23:36:00,
2013-01-02 15:41:00,56.1,37.2,30.10,ESE,113,2.0,11.0,49,0.00,,,0.00,meteohub,2013-01-02 23:41:00,
2013-01-02 15:46:00,55.9,37.0,30.10,SE,134,3.0,6.0,49,0.00,,,0.00,meteohub,2013-01-02 23:46:00,
2013-01-02 15:51:00,55.9,37.0,30.10,SE,138,3.0,6.0,49,0.00,,,0.00,meteohub,2013-01-02 23:51:00,
2013-01-02 15:56:00,55.9,37.0,30.10,ESE,119,1.0,5.0,49,0.00,,,0.00,meteohub,2013-01-02 23:56:00,
2013-01-02 16:01:00,55.8,36.9,30.10,SE,146,3.0,4.0,49,0.00,,,0.00,meteohub,2013-01-03 00:01:00,
2013-01-02 16:06:00,55.6,37.2,30.10,ESE,115,2.0,6.0,50,0.00,,,0.00,meteohub,2013-01-03 00:06:00,
2013-01-02 16:11:00,55.2,36.9,30.10,ESE,116,5.0,6.0,50,0.00,,,0.00,meteohub,2013-01-03 00:11:00,
2013-01-02 16:16:00,54.9,37.0,30.10,SE,137,4.0,5.0,51,0.00,,,0.00,meteohub,2013-01-03 00:16:00,
2013-01-02 16:21:00,54.3,37.0,30.10,ESE,116,4.0,7.0,52,0.00,,,0.00,meteohub,2013-01-03 00:21:00,
2013-01-02 16:26:00,54.1,36.9,30.10,SSE,150,3.0,7.0,52,0.00,,,0.00,meteohub,2013-01-03 00:26:00,
2013-01-02 16:33:00,54.0,37.2,30.10,ESE,107,7.0,7.0,53,0.00,,,0.00,meteohub,2013-01-03 00:33:00,
2013-01-02 16:38:00,53.6,36.9,30.10,ESE,109,3.0,8.0,53,0.00,,,0.00,meteohub,2013-01-03 00:38:00,
2013-01-02 16:43:00,53.1,36.9,30.10,ESE,105,7.0,8.0,54,0.00,,,0.00,meteohub,2013-01-03 00:43:00,
2013-01-02 16:48:00,52.7,37.0,30.10,ENE,76,5.0,9.0,55,0.00,,,0.00,meteohub,2013-01-03 00:48:00,
2013-01-02 16:53:00,52.3,36.7,30.09,East,92,4.0,9.0,55,0.00,,,0.00,meteohub,2013-01-03 00:53:00,
2013-01-02 16:58:00,52.0,36.9,30.09,East,86,4.0,9.0,56,0.00,,,0.00,meteohub,2013-01-03 00:58:00,
2013-01-02 17:04:00,51.6,36.9,30.09,SW,218,2.0,9.0,57,0.00,,,0.00,meteohub,2013-01-03 01:04:00,
2013-01-02 17:09:00,51.1,36.9,30.09,SSW,195,2.0,9.0,58,0.00,,,0.00,meteohub,2013-01-03 01:09:00,
2013-01-02 17:14:00,50.4,36.5,30.09,ESE,122,4.0,8.0,59,0.00,,,0.00,meteohub,2013-01-03 01:14:00,
2013-01-02 17:19:00,49.8,36.5,30.09,East,88,3.0,8.0,60,0.00,,,0.00,meteohub,2013-01-03 01:19:00,
2013-01-02 17:24:00,49.5,36.5,30.10,ENE,65,2.0,8.0,61,0.00,,,0.00,meteohub,2013-01-03 01:24:00,
2013-01-02 17:29:00,48.7,36.7,30.10,NNW,329,1.0,7.0,63,0.00,,,0.00,meteohub,2013-01-03 01:29:00,
2013-01-02 17:34:00,48.2,37.0,30.10,West,275,0.0,6.0,65,0.00,,,0.00,meteohub,2013-01-03 01:34:00,
2013-01-02 17:39:00,47.7,36.9,30.10,East,85,1.0,3.0,66,0.00,,,0.00,meteohub,2013-01-03 01:39:00,
2013-01-02 17:44:00,47.1,36.3,30.10,ENE,58,0.0,3.0,66,0.00,,,0.00,meteohub,2013-01-03 01:44:00,
2013-01-02 17:49:00,46.8,36.7,30.10,ENE,59,0.0,3.0,68,0.00,,,0.00,meteohub,2013-01-03 01:49:00,
2013-01-02 17:54:00,46.2,36.7,30.10,ENE,57,0.0,2.0,69,0.00,,,0.00,meteohub,2013-01-03 01:54:00,
2013-01-02 17:59:00,45.9,36.7,30.10,ENE,59,0.0,1.0,70,0.00,,,0.00,meteohub,2013-01-03 01:59:00,
2013-01-02 18:04:00,45.5,36.7,30.10,NW,317,2.0,2.0,71,0.00,,,0.00,meteohub,2013-01-03 02:04:00,
2013-01-02 18:09:00,45.0,36.5,30.11,NW,317,0.0,3.0,72,0.00,,,0.00,meteohub,2013-01-03 02:09:00,
2013-01-02 18:14:00,44.4,36.7,30.11,ENE,57,1.0,3.0,74,0.00,,,0.00,meteohub,2013-01-03 02:14:00,
2013-01-02 18:19:00,44.1,36.3,30.11,NE,55,1.0,3.0,74,0.00,,,0.00,meteohub,2013-01-03 02:19:00,
2013-01-02 18:24:00,43.5,36.1,30.11,NE,55,1.0,2.0,75,0.00,,,0.00,meteohub,2013-01-03 02:24:00,
2013-01-02 18:29:00,43.2,36.1,30.11,ENE,57,1.0,2.0,76,0.00,,,0.00,meteohub,2013-01-03 02:29:00,
2013-01-02 18:34:00,43.0,36.0,30.11,ENE,57,0.0,1.0,76,0.00,,,0.00,meteohub,2013-01-03 02:34:00,
2013-01-02 18:39:00,42.6,36.0,30.10,NE,55,1.0,1.0,77,0.00,,,0.00,meteohub,2013-01-03 02:39:00,
2013-01-02 18:44:00,42.1,35.8,30.10,West,267,2.0,2.0,78,0.00,,,0.00,meteohub,2013-01-03 02:44:00,
2013-01-02 18:49:00,41.5,35.6,30.11,WNW,291,1.0,2.0,79,0.00,,,0.00,meteohub,2013-01-03 02:49:00,
2013-01-02 18:54:00,41.2,35.4,30.11,WNW,292,1.0,2.0,80,0.00,,,0.00,meteohub,2013-01-03 02:54:00,
2013-01-02 19:00:00,40.8,34.9,30.11,WNW,291,0.0,2.0,79,0.00,,,0.00,meteohub,2013-01-03 03:00:00,
2013-01-02 19:05:00,40.5,34.7,30.12,WNW,292,1.0,1.0,80,0.00,,,0.00,meteohub,2013-01-03 03:05:00,
2013-01-02 19:10:00,40.3,34.5,30.12,WNW,292,0.0,1.0,80,0.00,,,0.00,meteohub,2013-01-03 03:10:00,
2013-01-02 19:15:00,40.1,34.7,30.12,NNW,331,1.0,1.0,81,0.00,,,0.00,meteohub,2013-01-03 03:15:00,
2013-01-02 19:20:00,39.9,34.5,30.12,NE,36,0.0,1.0,81,0.00,,,0.00,meteohub,2013-01-03 03:20:00,
2013-01-02 19:25:00,39.6,34.2,30.12,NE,36,0.0,1.0,81,0.00,,,0.00,meteohub,2013-01-03 03:25:00,
2013-01-02 19:32:00,39.4,34.7,30.12,NE,37,1.0,1.0,83,0.00,,,0.00,meteohub,2013-01-03 03:32:00,
2013-01-02 19:39:00,39.0,34.3,30.11,NE,37,0.0,1.0,83,0.00,,,0.00,meteohub,2013-01-03 03:39:00,
2013-01-02 19:45:00,39.0,34.5,30.11,West,265,2.0,2.0,84,0.00,,,0.00,meteohub,2013-01-03 03:45:00,
2013-01-02 19:51:00,38.7,34.2,30.12,West,265,1.0,2.0,84,0.00,,,0.00,meteohub,2013-01-03 03:51:00,
2013-01-02 19:56:00,38.1,33.8,30.12,West,267,1.0,2.0,84,0.00,,,0.00,meteohub,2013-01-03 03:56:00,
2013-01-02 20:02:00,37.9,33.8,30.12,NNE,22,1.0,2.0,85,0.00,,,0.00,meteohub,2013-01-03 04:02:00,
2013-01-02 20:07:00,37.9,33.8,30.12,East,90,0.0,9.0,85,0.00,,,0.00,meteohub,2013-01-03 04:07:00,
2013-01-02 20:12:00,37.9,33.8,30.12,SW,226,1.0,9.0,85,0.00,,,0.00,meteohub,2013-01-03 04:12:00,
2013-01-02 20:17:00,37.6,33.8,30.12,West,259,0.0,9.0,86,0.00,,,0.00,meteohub,2013-01-03 04:17:00,
2013-01-02 20:23:00,37.2,33.4,30.12,West,260,0.0,9.0,86,0.00,,,0.00,meteohub,2013-01-03 04:23:00,
2013-01-02 20:28:00,36.9,33.1,30.12,West,260,0.0,9.0,86,0.00,,,0.00,meteohub,2013-01-03 04:28:00,
2013-01-02 20:33:00,36.9,33.4,30.12,NE,51,2.0,9.0,87,0.00,,,0.00,meteohub,2013-01-03 04:33:00,
2013-01-02 20:38:00,36.9,33.4,30.12,NE,51,0.0,8.0,87,0.00,,,0.00,meteohub,2013-01-03 04:38:00,
2013-01-02 20:43:00,36.5,33.1,30.12,NE,53,0.0,8.0,87,0.00,,,0.00,meteohub,2013-01-03 04:43:00,
2013-01-02 20:48:00,36.1,32.9,30.12,West,266,1.0,7.0,88,0.00,,,0.00,meteohub,2013-01-03 04:48:00,
2013-01-02 20:53:00,36.0,32.7,30.12,West,267,0.0,6.0,88,0.00,,,0.00,meteohub,2013-01-03 04:53:00,
2013-01-02 20:58:00,36.0,33.1,30.12,West,267,0.0,6.0,89,0.00,,,0.00,meteohub,2013-01-03 04:58:00,
2013-01-02 21:00:00,36.0,33.1,30.12,West,267,0.0,3.0,89,0.00,,,0.00,meteohub,2013-01-03 05:00:00,
2013-01-02 21:03:00,35.8,32.9,30.12,West,266,0.0,3.0,89,0.00,,,0.00,meteohub,2013-01-03 05:03:00,
2013-01-02 21:06:00,35.8,32.9,30.13,West,267,0.0,3.0,89,0.00,,,0.00,meteohub,2013-01-03 05:06:00,
2013-01-02 21:11:00,35.6,32.7,30.13,West,266,0.0,2.0,89,0.00,,,0.00,meteohub,2013-01-03 05:11:00,
2013-01-02 21:16:00,35.4,32.5,30.13,West,267,0.0,1.0,89,0.00,,,0.00,meteohub,2013-01-03 05:16:00,
2013-01-02 21:21:00,35.1,32.4,30.14,West,267,0.0,1.0,90,0.00,,,0.00,meteohub,2013-01-03 05:21:00,
2013-01-02 21:26:00,34.9,32.2,30.14,West,267,0.0,2.0,90,0.00,,,0.00,meteohub,2013-01-03 05:26:00,
2013-01-02 21:31:00,34.7,32.0,30.14,West,267,0.0,3.0,90,0.00,,,0.00,meteohub,2013-01-03 05:31:00,
2013-01-02 21:36:00,34.5,31.8,30.13,West,267,0.0,3.0,90,0.00,,,0.00,meteohub,2013-01-03 05:36:00,
2013-01-02 21:41:00,34.2,31.5,30.13,West,267,0.0,2.0,90,0.00,,,0.00,meteohub,2013-01-03 05:41:00,
2013-01-02 21:46:00,34.2,31.8,30.13,West,279,1.0,2.0,91,0.00,,,0.00,meteohub,2013-01-03 05:46:00,
2013-01-02 21:51:00,34.2,31.8,30.13,West,279,0.0,2.0,91,0.00,,,0.00,meteohub,2013-01-03 05:51:00,
2013-01-02 21:56:00,34.2,31.8,30.13,West,279,1.0,1.0,91,0.00,,,0.00,meteohub,2013-01-03 05:56:00,
2013-01-02 22:01:00,34.0,31.6,30.13,West,280,0.0,2.0,91,0.00,,,0.00,meteohub,2013-01-03 06:01:00,
2013-01-02 22:06:00,34.0,31.6,30.14,West,280,0.0,2.0,91,0.00,,,0.00,meteohub,2013-01-03 06:06:00,
2013-01-02 22:11:00,34.0,31.6,30.14,West,280,0.0,2.0,91,0.00,,,0.00,meteohub,2013-01-03 06:11:00,
2013-01-02 22:17:00,34.2,31.8,30.14,West,280,1.0,2.0,91,0.00,,,0.00,meteohub,2013-01-03 06:17:00,
2013-01-02 22:22:00,34.0,31.6,30.14,West,280,0.0,2.0,91,0.00,,,0.00,meteohub,2013-01-03 06:22:00,
2013-01-02 22:27:00,33.6,30.9,30.14,West,279,0.0,1.0,90,0.00,,,0.00,meteohub,2013-01-03 06:27:00,
2013-01-02 22:32:00,33.4,31.1,30.14,West,279,0.0,1.0,91,0.00,,,0.00,meteohub,2013-01-03 06:32:00,
2013-01-02 22:37:00,33.4,31.3,30.13,East,92,0.0,1.0,92,0.00,,,0.00,meteohub,2013-01-03 06:37:00,
2013-01-02 22:42:00,33.4,31.3,30.13,ESE,102,0.0,1.0,92,0.00,,,0.00,meteohub,2013-01-03 06:42:00,
2013-01-02 22:47:00,33.3,30.9,30.13,ESE,102,1.0,1.0,91,0.00,,,0.00,meteohub,2013-01-03 06:47:00,
2013-01-02 22:52:00,33.1,30.7,30.13,ESE,102,0.0,1.0,91,0.00,,,0.00,meteohub,2013-01-03 06:52:00,
2013-01-02 22:57:00,32.7,30.4,30.13,NNW,339,1.0,1.0,91,0.00,,,0.00,meteohub,2013-01-03 06:57:00,
2013-01-02 23:02:00,32.7,30.7,30.13,NW,321,0.0,1.0,92,0.00,,,0.00,meteohub,2013-01-03 07:02:00,
2013-01-02 23:07:00,32.7,30.7,30.13,NW,319,2.0,2.0,92,0.00,,,0.00,meteohub,2013-01-03 07:07:00,
2013-01-02 23:12:00,32.7,30.7,30.13,NW,319,1.0,2.0,92,0.00,,,0.00,meteohub,2013-01-03 07:12:00,
2013-01-02 23:17:00,32.7,30.7,30.13,NNW,327,0.0,2.0,92,0.00,,,0.00,meteohub,2013-01-03 07:17:00,
2013-01-02 23:22:00,32.7,30.7,30.13,NNW,327,0.0,2.0,92,0.00,,,0.00,meteohub,2013-01-03 07:22:00,
2013-01-02 23:28:00,32.7,30.7,30.13,East,99,0.0,1.0,92,0.00,,,0.00,meteohub,2013-01-03 07:28:00,
2013-01-02 23:33:00,32.7,30.7,30.13,East,100,0.0,1.0,92,0.00,,,0.00,meteohub,2013-01-03 07:33:00,
2013-01-02 23:38:00,32.5,30.6,30.13,East,100,0.0,2.0,92,0.00,,,0.00,meteohub,2013-01-03 07:38:00,
2013-01-02 23:43:00,32.2,30.2,30.13,East,99,0.0,2.0,92,0.00,,,0.00,meteohub,2013-01-03 07:43:00,
2013-01-02 23:48:00,32.0,30.0,30.13,East,99,1.0,2.0,92,0.00,,,0.00,meteohub,2013-01-03 07:48:00,
2013-01-02 23:53:00,31.8,29.8,30.13,East,100,0.0,2.0,92,0.00,,,0.00,meteohub,2013-01-03 07:53:00,
2013-01-02 23:58:00,31.8,30.0,30.13,East,100,0.0,2.0,93,0.00,,,0.00,meteohub,2013-01-03 07:58:00,